OLE weather

Cattaraugus County-Olean Airport
Olean, New York, United States

Public forecast

Using degrees Fahrenheit for public forecast. Weather courtesy of forecast.io.

METAR (pilot weather report)

Retrieved 2019/04/24 01:35 UTC (10 minutes ago):

KOLE 240135Z AUTO 27009G14KT 230V320 10SM OVC008 09/09 A2982 RMK AO2

TAF (pilot weather forecast)

Forecast is more than 12 hours old.

Closest forecast is Bradford Regional Airport, 28.9 nm (53.5 km) SSW. Retrieved 2019/04/23 00:36 UTC (1 day ago):

TAF KBFD 232333Z 2400/2424 27010KT P6SM OVC015 TEMPO 2406/2410 OVC008 FM241400 30012G20KT P6SM SCT045 FM242200 28008KT P6SM SKC